createdAt,value
2023-04-22T00:03:35.269Z,98707.77
2023-04-22T00:08:36.563Z,98711.43
2023-04-22T00:13:37.747Z,98706.95
2023-04-22T00:18:38.893Z,98707.17
2023-04-22T00:23:40.396Z,98705.89
2023-04-22T00:28:41.528Z,98706.15
2023-04-22T00:33:43.191Z,98707.27
2023-04-22T00:38:48.716Z,98708.77
2023-04-22T00:43:51.906Z,98705.33
2023-04-22T00:48:53.626Z,98701.95
2023-04-22T00:53:55.215Z,98702.20
2023-04-22T00:58:57.310Z,98702.04
2023-04-22T01:04:00.393Z,98706.84
2023-04-22T01:09:02.104Z,98711.69
2023-04-22T01:14:04.024Z,98707.81
2023-04-22T01:19:05.867Z,98709.04
2023-04-22T01:24:07.745Z,98709.39
2023-04-22T01:29:09.051Z,98712.00
2023-04-22T01:34:10.750Z,98710.30
2023-04-22T01:39:12.241Z,98713.17
2023-04-22T01:44:14.002Z,98708.91
2023-04-22T01:49:15.486Z,98711.27
2023-04-22T01:54:17.777Z,98711.48
2023-04-22T01:59:20.680Z,98712.20
2023-04-22T02:04:21.842Z,98715.65
2023-04-22T02:09:23.765Z,98714.14
2023-04-22T02:14:25.836Z,98710.91
2023-04-22T02:19:27.793Z,98712.77
2023-04-22T02:24:29.526Z,98708.92
2023-04-22T02:29:32.669Z,98709.02
2023-04-22T02:34:33.722Z,98711.63
2023-04-22T02:39:34.898Z,98714.27
2023-04-22T02:44:36.210Z,98714.88
2023-04-22T02:49:37.488Z,98714.60
2023-04-22T02:54:39.175Z,98710.60
2023-04-22T02:59:40.563Z,98714.85
2023-04-22T03:04:42.454Z,98716.09
2023-04-22T03:09:43.461Z,98715.39
2023-04-22T03:14:44.679Z,98714.41
2023-04-22T03:19:46.504Z,98716.05
2023-04-22T03:24:48.330Z,98718.33
2023-04-22T03:29:49.554Z,98714.42
2023-04-22T03:34:50.767Z,98714.45
2023-04-22T03:39:52.958Z,98713.73
2023-04-22T03:44:54.613Z,98710.39
2023-04-22T03:49:57.935Z,98714.49
2023-04-22T03:54:59.098Z,98713.21
2023-04-22T04:00:01.287Z,98714.73
2023-04-22T04:05:02.765Z,98719.27
2023-04-22T04:10:04.870Z,98721.52
2023-04-22T04:15:07.173Z,98716.66
2023-04-22T04:20:10.016Z,98716.13
2023-04-22T04:25:12.582Z,98712.64
2023-04-22T04:30:17.782Z,98715.30
2023-04-22T04:35:23.251Z,98709.48
2023-04-22T04:40:28.575Z,98714.98
2023-04-22T04:45:58.778Z,98723.73
2023-04-22T04:51:05.473Z,98727.63
2023-04-22T04:56:08.756Z,98727.78
2023-04-22T05:01:10.434Z,98730.13
2023-04-22T05:06:11.968Z,98731.13
2023-04-22T05:11:13.795Z,98722.36
2023-04-22T05:16:15.732Z,98719.95
2023-04-22T05:21:16.950Z,98722.23
2023-04-22T05:26:18.794Z,98722.05
2023-04-22T05:31:21.804Z,98721.70
2023-04-22T05:36:22.929Z,98723.30
2023-04-22T05:41:24.065Z,98727.92
2023-04-22T05:46:25.442Z,98726.48
2023-04-22T05:51:26.753Z,98726.05
2023-04-22T05:56:28.167Z,98728.48
2023-04-22T06:01:29.211Z,98734.56
2023-04-22T06:06:36.514Z,98740.23
2023-04-22T06:11:37.689Z,98735.17
2023-04-22T06:16:39.338Z,98731.20
2023-04-22T06:21:41.931Z,98729.94
2023-04-22T06:26:43.198Z,98727.99
2023-04-22T06:31:44.900Z,98724.02
2023-04-22T06:36:46.203Z,98723.46
2023-04-22T06:41:48.533Z,98725.80
2023-04-22T06:47:09.949Z,98725.41
2023-04-22T06:52:24.238Z,98729.61
2023-04-22T06:57:27.049Z,98728.16
2023-04-22T07:02:28.382Z,98726.16
2023-04-22T07:07:29.674Z,98725.97
2023-04-22T07:12:30.790Z,98726.95
2023-04-22T07:17:32.026Z,98725.00
2023-04-22T07:22:33.146Z,98732.60
2023-04-22T07:27:37.045Z,98731.52
2023-04-22T07:32:38.654Z,98729.64
2023-04-22T07:37:39.812Z,98733.56
2023-04-22T07:42:40.799Z,98731.10
2023-04-22T07:47:41.888Z,98724.35
2023-04-22T07:52:42.865Z,98726.59
2023-04-22T07:57:43.920Z,98729.00
2023-04-22T08:02:46.263Z,98728.92
2023-04-22T08:07:47.322Z,98729.73
2023-04-22T08:12:48.594Z,98727.90
2023-04-22T08:17:49.782Z,98721.73
2023-04-22T08:22:52.442Z,98727.11
2023-04-22T08:27:53.605Z,98728.98
2023-04-22T08:32:54.829Z,98725.08
2023-04-22T08:37:55.962Z,98723.80
2023-04-22T08:42:57.016Z,98718.88
2023-04-22T08:47:58.932Z,98713.14
2023-04-22T08:53:00.015Z,98709.88
2023-04-22T08:58:03.422Z,98708.56
2023-04-22T09:03:06.362Z,98706.25
2023-04-22T09:08:08.281Z,98704.70
2023-04-22T09:13:09.724Z,98702.99
2023-04-22T09:18:10.764Z,98702.19
2023-04-22T09:23:12.494Z,98703.34
2023-04-22T09:28:18.200Z,98704.34
2023-04-22T09:33:19.576Z,98698.45
2023-04-22T09:38:20.574Z,98695.63
2023-04-22T09:43:22.106Z,98690.64
2023-04-22T09:48:23.358Z,98681.48
2023-04-22T09:53:24.652Z,98671.93
2023-04-22T09:58:26.987Z,98675.14
2023-04-22T10:03:28.323Z,98669.52
2023-04-22T10:08:29.961Z,98667.92
2023-04-22T10:13:31.207Z,98669.08
2023-04-22T10:18:33.818Z,98669.81
2023-04-22T10:23:35.003Z,98658.84
2023-04-22T10:28:43.316Z,98654.65
2023-04-22T10:33:44.410Z,98648.46
2023-04-22T10:38:54.500Z,98650.45
2023-04-22T10:43:58.283Z,98640.70
2023-04-22T10:49:10.688Z,98638.48
2023-04-22T10:54:29.573Z,98638.77
2023-04-22T10:59:41.609Z,98627.41
2023-04-22T11:04:44.248Z,98630.50
2023-04-22T11:09:49.020Z,98625.86
2023-04-22T11:14:50.267Z,98621.39
2023-04-22T11:19:55.499Z,98616.80
2023-04-22T11:24:58.450Z,98614.10
2023-04-22T11:30:10.371Z,98609.08
2023-04-22T11:35:13.893Z,98602.21
2023-04-22T11:40:30.608Z,98600.02
2023-04-22T11:45:34.423Z,98597.56
2023-04-22T11:50:37.735Z,98571.32
2023-04-22T11:55:40.268Z,98586.08
2023-04-22T12:00:51.878Z,98581.20
2023-04-22T12:06:01.405Z,98577.80
2023-04-22T12:11:08.628Z,98576.37
2023-04-22T12:16:14.751Z,98579.89
2023-04-22T12:21:24.517Z,98571.58
2023-04-22T12:26:27.275Z,98570.24
2023-04-22T12:31:29.308Z,98562.77
2023-04-22T12:36:31.740Z,98562.72
2023-04-22T12:41:32.852Z,98560.44
2023-04-22T12:46:35.345Z,98551.19
2023-04-22T12:51:36.429Z,98543.78
2023-04-22T12:56:37.536Z,98535.42
2023-04-22T13:01:38.732Z,98531.17
2023-04-22T13:06:42.932Z,98528.95
2023-04-22T13:11:48.511Z,98527.89
2023-04-22T13:16:49.505Z,98524.55
2023-04-22T13:21:50.565Z,98515.22
2023-04-22T13:26:51.618Z,98513.13
2023-04-22T13:31:52.841Z,98515.77
2023-04-22T13:36:54.898Z,98503.85
2023-04-22T13:41:56.422Z,98501.02
2023-04-22T13:46:57.580Z,98499.38
2023-04-22T13:51:58.571Z,98504.47
2023-04-22T13:56:59.793Z,98493.95
2023-04-22T14:02:00.833Z,98489.08
2023-04-22T14:07:01.952Z,98486.16
2023-04-22T14:12:05.499Z,98485.44
2023-04-22T14:17:07.360Z,98480.98
2023-04-22T14:22:08.423Z,98483.32
2023-04-22T14:27:11.922Z,98479.55
2023-04-22T14:32:13.530Z,98473.66
2023-04-22T14:37:14.630Z,98472.52
2023-04-22T14:42:17.695Z,98468.61
2023-04-22T14:47:18.721Z,98467.87
2023-04-22T14:52:19.982Z,98466.77
2023-04-22T14:57:21.008Z,98461.52
2023-04-22T15:02:22.290Z,98463.36
2023-04-22T15:07:23.439Z,98460.66
2023-04-22T15:12:25.729Z,98454.75
2023-04-22T15:17:28.307Z,98453.70
2023-04-22T15:22:29.573Z,98427.70
2023-04-22T15:27:31.059Z,98443.34
2023-04-22T15:32:32.247Z,98448.54
2023-04-22T15:37:33.505Z,98448.30
2023-04-22T15:42:34.576Z,98447.29
2023-04-22T15:47:36.608Z,98444.28
2023-04-22T15:52:38.276Z,98453.30
2023-04-22T15:57:39.342Z,98451.05
2023-04-22T16:02:41.834Z,98449.77
2023-04-22T16:07:43.180Z,98448.21
2023-04-22T16:12:44.143Z,98444.39
2023-04-22T16:17:45.359Z,98440.02
2023-04-22T16:22:46.460Z,98436.69
2023-04-22T16:27:47.647Z,98433.28
2023-04-22T16:32:48.805Z,98432.79
2023-04-22T16:37:50.056Z,98429.77
2023-04-22T16:42:51.735Z,98425.80
2023-04-22T16:47:52.898Z,98427.70
2023-04-22T16:52:54.210Z,98423.16
2023-04-22T16:57:57.152Z,98414.40
2023-04-22T17:02:58.393Z,98417.67
2023-04-22T17:07:59.607Z,98415.98
2023-04-22T17:13:00.865Z,98422.09
2023-04-22T17:18:02.086Z,98421.80
2023-04-22T17:23:03.688Z,98415.14
2023-04-22T17:28:05.054Z,98417.11
2023-04-22T17:33:06.451Z,98422.20
2023-04-22T17:38:07.511Z,98418.24
2023-04-22T17:43:08.509Z,98422.39
2023-04-22T17:48:09.471Z,98423.23
2023-04-22T17:53:10.827Z,98427.61
2023-04-22T17:58:11.784Z,98426.86
2023-04-22T18:03:13.772Z,98426.71
2023-04-22T18:08:15.392Z,98431.19
2023-04-22T18:13:16.584Z,98433.70
2023-04-22T18:18:17.532Z,98444.73
2023-04-22T18:23:18.572Z,98445.11
2023-04-22T18:28:19.890Z,98448.70
2023-04-22T18:33:20.886Z,98445.59
2023-04-22T18:38:22.079Z,98451.90
2023-04-22T18:43:23.496Z,98449.42
2023-04-22T18:48:24.488Z,98459.85
2023-04-22T18:53:25.722Z,98455.70
2023-04-22T18:58:26.890Z,98458.85
2023-04-22T19:03:28.250Z,98458.04
2023-04-22T19:08:29.598Z,98461.33
2023-04-22T19:13:30.854Z,98458.96
2023-04-22T19:18:31.825Z,98461.36
2023-04-22T19:23:34.098Z,98463.39
2023-04-22T19:28:35.957Z,98463.88
2023-04-22T19:33:37.337Z,98463.30
2023-04-22T19:38:38.422Z,98459.80
2023-04-22T19:43:39.895Z,98461.38
2023-04-22T19:48:41.169Z,98469.48
2023-04-22T19:53:42.885Z,98468.11
2023-04-22T19:58:45.401Z,98470.92
2023-04-22T20:03:50.752Z,98466.92
2023-04-22T20:08:53.551Z,98463.52
2023-04-22T20:13:55.998Z,98459.61
2023-04-22T20:18:57.062Z,98457.41
2023-04-22T20:24:01.128Z,98455.91
2023-04-22T20:29:02.540Z,98453.38
2023-04-22T20:34:04.249Z,98450.47
2023-04-22T20:39:05.586Z,98451.02
2023-04-22T20:44:07.071Z,98450.86
2023-04-22T20:49:08.144Z,98451.57
2023-04-22T20:54:21.204Z,98443.02
2023-04-22T20:59:29.234Z,98445.26
2023-04-22T21:04:31.379Z,98444.75
2023-04-22T21:09:33.877Z,98448.35
2023-04-22T21:14:44.159Z,98447.87
2023-04-22T21:19:47.753Z,98446.53
2023-04-22T21:24:50.204Z,98448.76
2023-04-22T21:29:51.980Z,98447.91
2023-04-22T21:34:56.163Z,98452.86
2023-04-22T21:39:59.779Z,98455.05
2023-04-22T21:45:02.995Z,98457.60
2023-04-22T21:50:09.660Z,98457.07
2023-04-22T21:55:10.941Z,98461.83
2023-04-22T22:00:17.683Z,98458.04
2023-04-22T22:05:18.856Z,98452.02
2023-04-22T22:10:19.997Z,98451.80
2023-04-22T22:15:21.281Z,98452.81
2023-04-22T22:20:23.138Z,98452.22
2023-04-22T22:25:24.441Z,98454.34
2023-04-22T22:30:25.846Z,98453.09
2023-04-22T22:35:27.047Z,98450.50
2023-04-22T22:40:28.038Z,98449.93
2023-04-22T22:45:29.230Z,98451.56
2023-04-22T22:50:30.419Z,98464.06
2023-04-22T22:55:33.226Z,98458.68
2023-04-22T23:00:34.424Z,98460.33
2023-04-22T23:05:35.597Z,98465.91
2023-04-22T23:10:38.930Z,98465.91
2023-04-22T23:16:00.827Z,98459.12
2023-04-22T23:21:31.954Z,98462.71
2023-04-22T23:26:33.617Z,98459.63
2023-04-22T23:31:35.169Z,98452.59
2023-04-22T23:36:36.769Z,98443.35
2023-04-22T23:41:38.558Z,98444.33
2023-04-22T23:46:42.480Z,98445.80
2023-04-22T23:51:45.798Z,98442.95
2023-04-22T23:56:47.099Z,98438.27
